This is the latest recevied weather packets stored in our database for station/object 9W2RUT-G. If no packets are shown the sender has not sent any weather packets the latest 1 day(s).
| Time | Temp. | Humidity | Pressure | Rain* | Wind** | Luminosity | Snow |
|---|---|---|---|---|---|---|---|
| 1777896039 | 29.44° C | 34% | 1012.2 hPa | - | - | - | - |
| 1777895556 | 35° C | 44% | 1013.3 hPa | - | - | - | - |
| 1777895138 | 30° C | 35% | 1012.1 hPa | - | - | - | - |
| 1777894238 | 30.56° C | 34% | 1012.1 hPa | - | - | - | - |
| 1777893338 | 31.11° C | 31% | 1011.7 hPa | - | - | - | - |
| 1777892437 | 33.33° C | 30% | 1011.4 hPa | - | - | - | - |
| 1777891537 | 36.11° C | 43% | 1011.1 hPa | - | - | - | - |
| 1777890702 | 36.11° C | 43% | 1011.1 hPa | - | - | - | - |
| 1777890637 | 36.11° C | 43% | 1011.1 hPa | - | - | - | - |
| 1777889737 | 36.11° C | 44% | 1010.8 hPa | - | - | - | - |
| 1777888837 | 35.56° C | 44% | 1010.5 hPa | - | - | - | - |
| 1777887936 | 36.11° C | 43% | 1010.6 hPa | - | - | - | - |
| 1777887036 | 36.11° C | 43% | 1010.9 hPa | - | - | - | - |
| 1777886136 | 35.56° C | 44% | 1011.4 hPa | - | - | - | - |
| 1777885279 | 35.56° C | 44% | 1011.7 hPa | - | - | - | - |
| 1777885236 | 35.56° C | 44% | 1011.7 hPa | - | - | - | - |
| 1777884335 | 35.56° C | 44% | 1011.6 hPa | - | - | - | - |
| 1777883435 | 35° C | 44% | 1011.8 hPa | - | - | - | - |
| 1777882535 | 36.11° C | 42% | 1011.9 hPa | - | - | - | - |
| 1777881672 | 35.56° C | 43% | 1011.8 hPa | - | - | - | - |
| 1777881635 | 35.56° C | 43% | 1011.8 hPa | - | - | - | - |
| 1777880735 | 35° C | 43% | 1012.1 hPa | - | - | - | - |
| 1777879834 | 35° C | 44% | 1012.5 hPa | - | - | - | - |
| 1777878934 | 35° C | 44% | 1012.5 hPa | - | - | - | - |
| 1777878034 | 35° C | 44% | 1013 hPa | - | - | - | - |
* Rain since midnight (hover to see other rain measurements)
** Current wind speed in m/s (hover to see current wind gust speed)